Welcome to Northern Hawkes Bay. New Zealand.
PWS Header
      nz Flag



Hit Counter


W3C Valid W3C Valid logo


    Wairoa

Select any of the Stations below to visit their websites.










Historic Data from Weather Underground
Select the location of interest below. Wairoa is the default. Please have patience, this Data is slow to load in.
Northern Hawkes Bay Historical Data
Daily Summary for October 13, 2017 Units:  Metric    English   Both
« Previous Day
Next Day »
Daily Weekly Monthly Yearly Custom
  High: Low: Average:
Temperature: 21.3 °C 6.6 °C 14 °C
Dew Point: 11.6 °C 6.3 °C 9.2 °C
Humidity: 99% 43% 76%
Wind Speed: 18.3km/h 0.0km/h 6km/h
Wind Gust: 31.7km/h - -
Wind- - NW
Pressure: 1015.8 hPa 1008.7 hPa -
Precipitation: 0.0 mm    
Historical Graphs
 
 
Tabular Data for October 13, 2017
Time Temperature Dew Point Pressure Wind Wind Speed Wind Gust Humidity Rainfall Rate (Hourly) solar
00:03 11.4 °C 10.4 °C 1015.5 hPa Calm   3.5 km/h 94% 0.0 mm 0 W/m2
00:08 11.4 °C 10.4 °C 1015.8 hPa Calm   3.5 km/h 94% 0.0 mm 0 W/m2
00:13 11.4 °C 10.4 °C 1015.5 hPa NNW 1.1 km/h 3.5 km/h 94% 0.0 mm 0 W/m2
00:18 11.3 °C 10.4 °C 1015.5 hPa Calm   3.5 km/h 94% 0.0 mm 0 W/m2
00:23 11.2 °C 10.4 °C 1015.5 hPa NNW 2.6 km/h 5.0 km/h 95% 0.0 mm 0 W/m2
00:28 11.1 °C 10.3 °C 1015.5 hPa NNW 1.1 km/h 5.0 km/h 95% 0.0 mm 0 W/m2
00:33 11.1 °C 10.3 °C 1015.5 hPa Calm   5.0 km/h 95% 0.0 mm 0 W/m2
00:38 11.1 °C 10.3 °C 1015.8 hPa NNW 1.1 km/h 5.0 km/h 95% 0.0 mm 0 W/m2
00:43 10.9 °C 10.3 °C 1015.5 hPa Calm   3.5 km/h 96% 0.0 mm 0 W/m2
00:48 10.9 °C 10.3 °C 1015.5 hPa Calm   2.6 km/h 96% 0.0 mm 0 W/m2
00:53 10.7 °C 10.1 °C 1015.5 hPa Calm   2.6 km/h 96% 0.0 mm 0 W/m2
00:58 10.6 °C 10.0 °C 1015.5 hPa Calm     96% 0.0 mm 0 W/m2
01:03 10.4 °C 9.8 °C 1015.5 hPa Calm     96% 0.0 mm 0 W/m2
01:08 10.3 °C 9.7 °C 1015.5 hPa Calm     96% 0.0 mm 0 W/m2
01:13 10.1 °C 9.5 °C 1015.1 hPa Calm     96% 0.0 mm 0 W/m2
01:18 10.0 °C 9.4 °C 1015.1 hPa Calm     96% 0.0 mm 0 W/m2
01:23 9.9 °C 9.4 °C 1015.1 hPa Calm     97% 0.0 mm 0 W/m2
01:28 9.8 °C 9.3 °C 1015.1 hPa Calm     97% 0.0 mm 0 W/m2
01:33 9.7 °C 9.4 °C 1015.1 hPa Calm     98% 0.0 mm 0 W/m2
01:38 9.7 °C 9.4 °C 1015.1 hPa Calm     98% 0.0 mm 0 W/m2
01:43 9.5 °C 9.2 °C 1015.1 hPa Calm     98% 0.0 mm 0 W/m2
01:48 9.4 °C 9.1 °C 1015.1 hPa Calm     98% 0.0 mm 0 W/m2
01:53 9.3 °C 9.2 °C 1014.8 hPa Calm     99% 0.0 mm 0 W/m2
01:58 9.1 °C 8.9 °C 1015.1 hPa Calm     99% 0.0 mm 0 W/m2
02:03 9.0 °C 8.8 °C 1015.1 hPa Calm     99% 0.0 mm 0 W/m2
02:08 8.9 °C 8.8 °C 1015.1 hPa Calm     99% 0.0 mm 0 W/m2
02:13 8.8 °C 8.7 °C 1014.8 hPa Calm     99% 0.0 mm 0 W/m2
02:18 8.6 °C 8.4 °C 1014.8 hPa Calm     99% 0.0 mm 0 W/m2
02:24 8.5 °C 8.3 °C 1014.8 hPa Calm     99% 0.0 mm 0 W/m2
02:29 8.6 °C 8.4 °C 1014.8 hPa NW 1.1 km/h 2.6 km/h 99% 0.0 mm 0 W/m2
02:34 8.5 °C 8.3 °C 1014.8 hPa Calm   2.6 km/h 99% 0.0 mm 0 W/m2
02:39 8.5 °C 8.3 °C 1014.4 hPa NW 1.1 km/h 2.6 km/h 99% 0.0 mm 0 W/m2
02:44 8.5 °C 8.3 °C 1014.4 hPa NW 1.1 km/h 5.0 km/h 99% 0.0 mm 0 W/m2
02:49 8.5 °C 8.3 °C 1014.4 hPa Calm   5.0 km/h 99% 0.0 mm 0 W/m2
02:54 8.4 °C 8.3 °C 1014.1 hPa NNW 1.1 km/h 2.6 km/h 99% 0.0 mm 0 W/m2
02:59 8.3 °C 8.2 °C 1014.1 hPa Calm   2.6 km/h 99% 0.0 mm 0 W/m2
03:04 8.3 °C 8.2 °C 1014.1 hPa NNW 2.6 km/h 3.5 km/h 99% 0.0 mm 0 W/m2
03:09 8.2 °C 8.1 °C 1014.1 hPa NNW 1.1 km/h 5.0 km/h 99% 0.0 mm 0 W/m2
03:14 8.1 °C 7.9 °C 1014.1 hPa NNW 1.1 km/h 5.0 km/h 99% 0.0 mm 0 W/m2
03:19 8.1 °C 7.9 °C 1014.1 hPa Calm   5.0 km/h 99% 0.0 mm 0 W/m2
03:24 8.0 °C 7.8 °C 1013.8 hPa NNW 2.6 km/h 5.0 km/h 99% 0.0 mm 0 W/m2
03:29 8.0 °C 7.8 °C 1013.8 hPa NNW 1.1 km/h 5.0 km/h 99% 0.0 mm 0 W/m2
03:34 8.0 °C 7.8 °C 1013.8 hPa Calm   5.0 km/h 99% 0.0 mm 0 W/m2
03:39 8.0 °C 7.8 °C 1014.1 hPa Calm   5.0 km/h 99% 0.0 mm 0 W/m2
03:44 7.9 °C 7.4 °C 1013.8 hPa Calm   2.6 km/h 97% 0.0 mm 0 W/m2
03:49 7.9 °C 7.4 °C 1013.8 hPa North 1.1 km/h 3.5 km/h 97% 0.0 mm 0 W/m2
03:54 7.8 °C 7.3 °C 1013.8 hPa NNW 1.1 km/h 3.5 km/h 97% 0.0 mm 0 W/m2
03:59 7.7 °C 7.3 °C 1013.8 hPa Calm   3.5 km/h 97% 0.0 mm 0 W/m2
04:04 7.5 °C 7.1 °C 1013.8 hPa Calm   2.6 km/h 97% 0.0 mm 0 W/m2
04:09 7.5 °C 7.1 °C 1013.8 hPa NNW 1.1 km/h 2.6 km/h 97% 0.0 mm 0 W/m2
04:14 7.5 °C 7.1 °C 1013.4 hPa North 1.1 km/h 3.5 km/h 97% 0.0 mm 0 W/m2
04:33 7.4 °C 6.9 °C 1013.4 hPa North 2.6 km/h 3.5 km/h 97% 0.0 mm 0 W/m2
04:38 7.4 °C 6.9 °C 1013.4 hPa North 1.1 km/h 5.0 km/h 97% 0.0 mm 0 W/m2
04:43 7.3 °C 6.8 °C 1013.4 hPa NNW 2.6 km/h 5.0 km/h 97% 0.0 mm 0 W/m2
04:48 7.3 °C 6.8 °C 1013.4 hPa NNW 2.6 km/h 5.0 km/h 97% 0.0 mm 0 W/m2
04:53 7.2 °C 6.8 °C 1013.4 hPa NNW 5.0 km/h 6.1 km/h 97% 0.0 mm 0 W/m2
04:58 7.2 °C 6.8 °C 1013.4 hPa NW 3.5 km/h 7.2 km/h 97% 0.0 mm 0 W/m2
05:04 7.2 °C 6.8 °C 1013.8 hPa NW 5.0 km/h 8.7 km/h 97% 0.0 mm 0 W/m2
05:09 7.1 °C 6.7 °C 1013.4 hPa NW 3.5 km/h 8.7 km/h 97% 0.0 mm 0 W/m2
05:14 7.1 °C 6.7 °C 1013.8 hPa NW 3.5 km/h 8.7 km/h 97% 0.0 mm 0 W/m2
05:19 7.0 °C 6.6 °C 1013.8 hPa NNW 2.6 km/h 7.2 km/h 97% 0.0 mm 0 W/m2
05:24 6.9 °C 6.6 °C 1013.8 hPa NNW 2.6 km/h 6.1 km/h 98% 0.0 mm 0 W/m2
05:29 6.8 °C 6.5 °C 1013.4 hPa NNW 3.5 km/h 5.0 km/h 98% 0.0 mm 0 W/m2
05:34 6.8 °C 6.5 °C 1013.8 hPa North 2.6 km/h 5.0 km/h 98% 0.0 mm 0 W/m2
05:40 6.8 °C 6.5 °C 1013.4 hPa NNW 3.5 km/h 6.1 km/h 98% 0.0 mm 0 W/m2
05:45 6.8 °C 6.5 °C 1013.4 hPa NW 5.0 km/h 6.1 km/h 98% 0.0 mm 0 W/m2
05:50 6.8 °C 6.5 °C 1013.4 hPa NNW 1.1 km/h 6.1 km/h 98% 0.0 mm 0 W/m2
05:55 6.7 °C 6.4 °C 1013.4 hPa NNW 3.5 km/h 6.1 km/h 98% 0.0 mm 0 W/m2
06:00 6.7 °C 6.4 °C 1013.4 hPa NW 3.5 km/h 7.2 km/h 98% 0.0 mm 0 W/m2
06:05 6.7 °C 6.4 °C 1013.4 hPa NW 3.5 km/h 7.2 km/h 98% 0.0 mm 0 W/m2
06:10 6.6 °C 6.3 °C 1013.4 hPa NW 6.1 km/h 9.7 km/h 98% 0.0 mm 0 W/m2
06:15 6.7 °C 6.4 °C 1013.4 hPa NW 5.0 km/h 9.7 km/h 98% 0.0 mm 0 W/m2
06:20 6.7 °C 6.4 °C 1013.4 hPa NW 5.0 km/h 9.7 km/h 98% 0.0 mm 0 W/m2
06:25 6.6 °C 6.3 °C 1013.4 hPa NW 6.1 km/h 9.7 km/h 98% 0.0 mm 0 W/m2
06:30 6.6 °C 6.3 °C 1013.4 hPa NNW 6.1 km/h 8.7 km/h 98% 0.0 mm 1 W/m2
06:35 6.6 °C 6.3 °C 1013.4 hPa NNW 5.0 km/h 8.7 km/h 98% 0.0 mm 4 W/m2
06:40 6.7 °C 6.4 °C 1013.4 hPa NNW 3.5 km/h 8.7 km/h 98% 0.0 mm 10 W/m2
06:45 6.7 °C 6.4 °C 1013.4 hPa NNW 5.0 km/h 11.1 km/h 98% 0.0 mm 17 W/m2
06:50 7.0 °C 6.6 °C 1013.4 hPa NW 6.1 km/h 11.1 km/h 97% 0.0 mm 23 W/m2
06:55 7.1 °C 6.7 °C 1013.4 hPa NNW 7.2 km/h 13.4 km/h 97% 0.0 mm 27 W/m2
07:00 7.1 °C 6.7 °C 1013.4 hPa NNW 2.6 km/h 13.4 km/h 97% 0.0 mm 30 W/m2
07:05 7.2 °C 6.8 °C 1013.4 hPa NNW 3.5 km/h 9.7 km/h 97% 0.0 mm 38 W/m2
07:10 7.2 °C 6.8 °C 1013.4 hPa NNW 6.1 km/h 9.7 km/h 97% 0.0 mm 41 W/m2
07:15 7.3 °C 6.8 °C 1013.4 hPa NNW 6.1 km/h 13.4 km/h 97% 0.0 mm 65 W/m2
07:20 7.4 °C 6.9 °C 1013.4 hPa NNW 6.1 km/h 13.4 km/h 97% 0.0 mm 46 W/m2
07:25 7.6 °C 7.2 °C 1013.4 hPa NNW 9.7 km/h 13.4 km/h 97% 0.0 mm 57 W/m2
07:30 7.7 °C 7.3 °C 1013.4 hPa NNW 6.1 km/h 14.8 km/h 97% 0.0 mm 127 W/m2
07:35 8.0 °C 7.8 °C 1013.4 hPa NNW 7.2 km/h 14.8 km/h 99% 0.0 mm 82 W/m2
07:40 8.3 °C 8.2 °C 1013.4 hPa NNW 8.7 km/h 12.2 km/h 99% 0.0 mm 153 W/m2
07:45 8.5 °C 8.3 °C 1013.4 hPa North 9.7 km/h 13.4 km/h 99% 0.0 mm 169 W/m2
07:50 9.0 °C 8.8 °C 1013.4 hPa North 8.7 km/h 13.4 km/h 99% 0.0 mm 189 W/m2
07:55 9.1 °C 8.9 °C 1013.8 hPa North 6.1 km/h 12.2 km/h 99% 0.0 mm 166 W/m2
08:00 9.4 °C 9.3 °C 1013.8 hPa NNW 5.0 km/h 12.2 km/h 99% 0.0 mm 207 W/m2
08:05 9.7 °C 9.6 °C 1013.8 hPa NNW 11.1 km/h 14.8 km/h 99% 0.0 mm 152 W/m2
08:10 9.8 °C 9.7 °C 1013.8 hPa NNW 7.2 km/h 17.2 km/h 99% 0.0 mm 165 W/m2
08:15 9.8 °C 9.7 °C 1013.8 hPa NNW 5.0 km/h 17.2 km/h 99% 0.0 mm 209 W/m2
08:20 10.1 °C 9.9 °C 1013.8 hPa North 5.0 km/h 13.4 km/h 99% 0.0 mm 157 W/m2
08:25 10.3 °C 10.2 °C 1013.8 hPa NNE 5.0 km/h 13.4 km/h 99% 0.0 mm 191 W/m2
08:30 10.5 °C 10.3 °C 1013.8 hPa North 8.7 km/h 13.4 km/h 99% 0.0 mm 179 W/m2
08:35 10.6 °C 10.4 °C 1013.8 hPa NNW 8.7 km/h 13.4 km/h 99% 0.0 mm 170 W/m2
08:40 10.7 °C 10.6 °C 1013.8 hPa NNW 6.1 km/h 13.4 km/h 99% 0.0 mm 154 W/m2
08:45 10.9 °C 10.6 °C 1013.8 hPa NNW 5.0 km/h 13.4 km/h 98% 0.0 mm 143 W/m2
08:50 11.0 °C 10.4 °C 1013.8 hPa NNW 5.0 km/h 9.7 km/h 96% 0.0 mm 133 W/m2
08:55 11.2 °C 10.3 °C 1013.8 hPa NNW 5.0 km/h 9.7 km/h 94% 0.0 mm 144 W/m2
09:00 11.4 °C 10.3 °C 1013.8 hPa NNW 5.0 km/h 11.1 km/h 93% 0.0 mm 167 W/m2
09:05 11.7 °C 10.4 °C 1013.8 hPa NNW 7.2 km/h 12.2 km/h 92% 0.0 mm 239 W/m2
09:10 12.1 °C 10.5 °C 1013.8 hPa NNW 9.7 km/h 14.8 km/h 90% 0.0 mm 241 W/m2
09:15 12.3 °C 10.4 °C 1013.8 hPa North 6.1 km/h 14.8 km/h 88% 0.0 mm 241 W/m2
09:21 12.6 °C 10.3 °C 1013.8 hPa NNW 6.1 km/h 13.4 km/h 86% 0.0 mm 269 W/m2
09:26 12.9 °C 10.6 °C 1013.8 hPa NNW 9.7 km/h 13.4 km/h 86% 0.0 mm 315 W/m2
09:31 13.3 °C 10.8 °C 1013.4 hPa NNW 5.0 km/h 12.2 km/h 85% 0.0 mm 315 W/m2
09:36 13.6 °C 10.9 °C 1013.4 hPa North 8.7 km/h 12.2 km/h 84% 0.0 mm 330 W/m2
09:41 14.0 °C 10.6 °C 1013.4 hPa North 7.2 km/h 12.2 km/h 80% 0.0 mm 277 W/m2
09:46 14.2 °C 10.4 °C 1013.4 hPa North 8.7 km/h 13.4 km/h 78% 0.0 mm 284 W/m2
09:51 14.4 °C 10.4 °C 1013.4 hPa North 7.2 km/h 13.4 km/h 77% 0.0 mm 296 W/m2
09:55 14.4 °C 10.4 °C 1013.4 hPa NNW 5.0 km/h 13.4 km/h 77% 0.0 mm 349 W/m2
10:00 14.9 °C 10.7 °C 1013.4 hPa NNW 3.5 km/h 13.4 km/h 76% 0.0 mm 309 W/m2
10:06 15.1 °C 10.5 °C 1013.4 hPa NNW 7.2 km/h 13.4 km/h 74% 0.0 mm 289 W/m2
10:11 15.1 °C 10.3 °C 1013.4 hPa NNW 3.5 km/h 14.8 km/h 73% 0.0 mm 391 W/m2
10:16 15.3 °C 10.5 °C 1013.1 hPa NNW 6.1 km/h 14.8 km/h 73% 0.0 mm 273 W/m2
10:21 15.2 °C 10.4 °C 1013.4 hPa NNW 8.7 km/h 15.8 km/h 73% 0.0 mm 299 W/m2
10:26 15.2 °C 10.6 °C 1013.1 hPa NNW 6.1 km/h 15.8 km/h 74% 0.0 mm 228 W/m2
10:31 15.3 °C 10.7 °C 1013.4 hPa NNW 8.7 km/h 14.8 km/h 74% 0.0 mm 229 W/m2
10:36 15.5 °C 10.9 °C 1013.4 hPa NNW 5.0 km/h 14.8 km/h 74% 0.0 mm 209 W/m2
10:42 15.8 °C 10.6 °C 1013.4 hPa North 5.0 km/h 11.1 km/h 71% 0.0 mm 314 W/m2
10:47 16.4 °C 10.7 °C 1013.4 hPa North 2.6 km/h 9.7 km/h 69% 0.0 mm 226 W/m2
10:52 16.5 °C 9.9 °C 1013.1 hPa NNW 3.5 km/h 14.8 km/h 65% 0.0 mm 237 W/m2
10:57 17.0 °C 10.2 °C 1013.1 hPa NNW 8.7 km/h 14.8 km/h 64% 0.0 mm 551 W/m2
11:01 17.1 °C 9.8 °C 1013.1 hPa North 3.5 km/h 14.8 km/h 62% 0.0 mm 342 W/m2
11:07 17.3 °C 9.7 °C 1013.1 hPa North 7.2 km/h 15.8 km/h 61% 0.0 mm 628 W/m2
11:13 17.2 °C 9.6 °C 1013.1 hPa North 7.2 km/h 15.8 km/h 61% 0.0 mm 355 W/m2
11:18 16.8 °C 9.5 °C 1013.1 hPa North 3.5 km/h 13.4 km/h 62% 0.0 mm 414 W/m2
11:23 17.3 °C 10.2 °C 1013.1 hPa North 2.6 km/h 12.2 km/h 63% 0.0 mm 349 W/m2
11:28 17.8 °C 10.7 °C 1013.1 hPa NNE 3.5 km/h 7.2 km/h 63% 0.0 mm 399 W/m2
11:33 18.3 °C 10.7 °C 1012.8 hPa NNE 5.0 km/h 9.7 km/h 61% 0.0 mm 580 W/m2
11:38 18.6 °C 9.9 °C 1012.8 hPa NNE 6.1 km/h 9.7 km/h 57% 0.0 mm 554 W/m2
11:43 18.9 °C 10.4 °C 1012.8 hPa North 8.7 km/h 13.4 km/h 58% 0.0 mm 557 W/m2
11:48 18.6 °C 9.9 °C 1012.8 hPa North 6.1 km/h 13.4 km/h 57% 0.0 mm 514 W/m2
11:52 18.6 °C 10.2 °C 1012.8 hPa North 6.1 km/h 13.4 km/h 58% 0.0 mm 589 W/m2
11:58 19.1 °C 10.1 °C 1012.8 hPa NNE 3.5 km/h 12.2 km/h 56% 0.0 mm 601 W/m2
12:03 19.2 °C 9.7 °C 1012.4 hPa NNE 6.1 km/h 12.2 km/h 54% 0.0 mm 668 W/m2
12:08 19.0 °C 8.7 °C 1012.8 hPa North 5.0 km/h 13.4 km/h 51% 0.0 mm 631 W/m2
12:13 19.5 °C 9.4 °C 1012.4 hPa North 2.6 km/h 13.4 km/h 52% 0.0 mm 700 W/m2
12:18 20.2 °C 10.3 °C 1012.1 hPa NNE 6.1 km/h 11.1 km/h 53% 0.0 mm 604 W/m2
12:22 20.2 °C 9.4 °C 1012.4 hPa NNE 2.6 km/h 9.7 km/h 50% 0.0 mm 731 W/m2
12:28 20.4 °C 9.1 °C 1012.1 hPa North 3.5 km/h 9.7 km/h 48% 0.0 mm 746 W/m2
12:32 20.4 °C 9.3 °C 1012.4 hPa NW 6.1 km/h 11.1 km/h 49% 0.0 mm 773 W/m2
12:38 20.2 °C 8.8 °C 1012.1 hPa NNW 2.6 km/h 11.1 km/h 48% 0.0 mm 768 W/m2
12:42 20.5 °C 9.4 °C 1012.1 hPa Calm   11.1 km/h 49% 0.0 mm 746 W/m2
12:48 21.3 °C 11.6 °C 1012.1 hPa Calm   8.7 km/h 54% 0.0 mm 630 W/m2
12:53 21.3 °C 10.2 °C 1011.7 hPa WNW 9.7 km/h 15.8 km/h 49% 0.0 mm 624 W/m2
12:58 21.1 °C 10.0 °C 1011.7 hPa NNW 12.2 km/h 15.8 km/h 49% 0.0 mm 560 W/m2
13:03 21.0 °C 10.2 °C 1011.7 hPa NNW 9.7 km/h 14.8 km/h 50% 0.0 mm 423 W/m2
13:07 20.6 °C 9.5 °C 1011.7 hPa NNW 8.7 km/h 17.2 km/h 49% 0.0 mm 461 W/m2
13:13 20.7 °C 9.6 °C 1011.7 hPa WNW 7.2 km/h 18.3 km/h 49% 0.0 mm 467 W/m2
13:18 20.2 °C 9.4 °C 1011.7 hPa WNW 8.7 km/h 18.3 km/h 50% 0.0 mm 439 W/m2
13:22 20.5 °C 7.8 °C 1011.7 hPa NW 7.2 km/h 17.2 km/h 44% 0.0 mm 497 W/m2
13:28 20.2 °C 7.2 °C 1011.7 hPa NW 6.1 km/h 24.5 km/h 43% 0.0 mm 554 W/m2
13:32 20.2 °C 7.2 °C 1011.7 hPa NW 11.1 km/h 24.5 km/h 43% 0.0 mm 464 W/m2
13:38 20.2 °C 7.2 °C 1011.4 hPa NW 12.2 km/h 27.0 km/h 43% 0.0 mm 438 W/m2
13:43 20.0 °C 7.4 °C 1011.4 hPa NW 6.1 km/h 27.0 km/h 44% 0.0 mm 534 W/m2
13:47 20.2 °C 7.6 °C 1011.4 hPa NW 6.1 km/h 24.5 km/h 44% 0.0 mm 474 W/m2
13:53 20.2 °C 7.9 °C 1011.4 hPa NW 11.1 km/h 19.5 km/h 45% 0.0 mm 467 W/m2
13:57 20.0 °C 7.4 °C 1011.4 hPa NW 11.1 km/h 21.9 km/h 44% 0.0 mm 309 W/m2
14:03 19.5 °C 7.6 °C 1011.4 hPa NW 5.0 km/h 21.9 km/h 46% 0.0 mm 294 W/m2
14:08 19.3 °C 8.0 °C 1011.4 hPa NW 13.4 km/h 21.9 km/h 48% 0.0 mm 289 W/m2
14:13 19.3 °C 7.7 °C 1011.4 hPa NW 11.1 km/h 21.9 km/h 47% 0.0 mm 303 W/m2
14:17 19.2 °C 7.6 °C 1011.4 hPa NW 9.7 km/h 21.9 km/h 47% 0.0 mm 303 W/m2
14:23 19.2 °C 7.6 °C 1011.4 hPa NW 11.1 km/h 19.5 km/h 47% 0.0 mm 256 W/m2
14:27 19.1 °C 7.6 °C 1011.1 hPa NW 15.8 km/h 23.3 km/h 47% 0.0 mm 221 W/m2
14:32 18.8 °C 7.9 °C 1011.1 hPa NNW 11.1 km/h 23.3 km/h 49% 0.0 mm 203 W/m2
14:38 18.7 °C 7.5 °C 1011.1 hPa NNW 8.7 km/h 18.3 km/h 48% 0.0 mm 196 W/m2
14:43 18.6 °C 8.0 °C 1011.1 hPa NNW 17.2 km/h 20.9 km/h 50% 0.0 mm 199 W/m2
14:47 18.4 °C 7.5 °C 1010.7 hPa NNW 7.2 km/h 21.9 km/h 49% 0.0 mm 207 W/m2
14:53 18.6 °C 8.3 °C 1010.7 hPa NNW 7.2 km/h 21.9 km/h 51% 0.0 mm 205 W/m2
14:57 18.6 °C 8.3 °C 1010.7 hPa NNW 11.1 km/h 20.9 km/h 51% 0.0 mm 187 W/m2
15:02 18.6 °C 8.3 °C 1011.1 hPa North 8.7 km/h 20.9 km/h 51% 0.0 mm 194 W/m2
15:07 18.6 °C 8.6 °C 1010.7 hPa North 11.1 km/h 19.5 km/h 52% 0.0 mm 220 W/m2
15:12 18.7 °C 8.7 °C 1010.7 hPa NNW 14.8 km/h 19.5 km/h 52% 0.0 mm 229 W/m2
15:18 18.8 °C 8.7 °C 1010.7 hPa NW 7.2 km/h 18.3 km/h 52% 0.0 mm 193 W/m2
15:23 18.9 °C 8.6 °C 1010.7 hPa NW 8.7 km/h 19.5 km/h 51% 0.0 mm 170 W/m2
15:27 18.7 °C 8.4 °C 1010.7 hPa NW 11.1 km/h 19.5 km/h 51% 0.0 mm 183 W/m2
15:32 18.7 °C 8.1 °C 1010.7 hPa NW 9.7 km/h 20.9 km/h 50% 0.0 mm 184 W/m2
15:37 18.7 °C 8.4 °C 1010.7 hPa NW 12.2 km/h 20.9 km/h 51% 0.0 mm 181 W/m2
15:42 18.8 °C 8.2 °C 1010.4 hPa NW 12.2 km/h 18.3 km/h 50% 0.0 mm 176 W/m2
15:48 18.8 °C 8.4 °C 1010.4 hPa NNW 9.7 km/h 18.3 km/h 51% 0.0 mm 186 W/m2
15:52 18.8 °C 8.2 °C 1010.4 hPa NNW 9.7 km/h 15.8 km/h 50% 0.0 mm 217 W/m2
15:57 18.7 °C 8.1 °C 1010.4 hPa NW 12.2 km/h 18.3 km/h 50% 0.0 mm 168 W/m2
16:02 18.7 °C 8.4 °C 1010.4 hPa NW 12.2 km/h 18.3 km/h 51% 0.0 mm 160 W/m2
16:07 18.6 °C 8.0 °C 1010.4 hPa NNW 7.2 km/h 17.2 km/h 50% 0.0 mm 158 W/m2
16:12 18.5 °C 7.9 °C 1010.0 hPa NNW 11.1 km/h 19.5 km/h 50% 0.0 mm 165 W/m2
16:17 18.4 °C 8.1 °C 1010.0 hPa NW 13.4 km/h 19.5 km/h 51% 0.0 mm 135 W/m2
16:22 18.3 °C 8.0 °C 1010.0 hPa NW 11.1 km/h 17.2 km/h 51% 0.0 mm 117 W/m2
16:27 18.1 °C 8.1 °C 1010.0 hPa NW 13.4 km/h 23.3 km/h 52% 0.0 mm 116 W/m2
16:32 18.2 °C 8.7 °C 1010.0 hPa NNW 9.7 km/h 23.3 km/h 54% 0.0 mm 138 W/m2
16:37 18.3 °C 9.1 °C 1010.0 hPa NW 9.7 km/h 17.2 km/h 55% 0.0 mm 128 W/m2
16:42 18.3 °C 9.1 °C 1010.0 hPa NNW 8.7 km/h 13.4 km/h 55% 0.0 mm 115 W/m2
16:47 18.2 °C 9.0 °C 1010.0 hPa NNW 11.1 km/h 14.8 km/h 55% 0.0 mm 100 W/m2
16:52 18.1 °C 9.2 °C 1010.0 hPa NNW 9.7 km/h 18.3 km/h 56% 0.0 mm 92 W/m2
16:58 18.0 °C 9.4 °C 1010.0 hPa NNW 7.2 km/h 18.3 km/h 57% 0.0 mm 90 W/m2
17:03 17.8 °C 8.9 °C 1010.0 hPa NNW 9.7 km/h 18.3 km/h 56% 0.0 mm 93 W/m2
17:07 17.8 °C 9.2 °C 1010.4 hPa NNW 12.2 km/h 19.5 km/h 57% 0.0 mm 97 W/m2
17:12 17.7 °C 9.3 °C 1010.4 hPa NNW 9.7 km/h 19.5 km/h 58% 0.0 mm 90 W/m2
17:18 17.7 °C 9.6 °C 1010.4 hPa NNW 8.7 km/h 18.3 km/h 59% 0.0 mm 107 W/m2
17:22 17.6 °C 9.5 °C 1010.4 hPa NNW 8.7 km/h 18.3 km/h 59% 0.0 mm 90 W/m2
17:27 17.6 °C 10.0 °C 1010.7 hPa NNW 7.2 km/h 14.8 km/h 61% 0.0 mm 79 W/m2
17:33 17.5 °C 9.9 °C 1010.7 hPa NNW 7.2 km/h 13.4 km/h 61% 0.0 mm 72 W/m2
17:37 17.4 °C 9.8 °C 1010.7 hPa NNW 5.0 km/h 12.2 km/h 61% 0.0 mm 68 W/m2
17:42 17.4 °C 10.1 °C 1010.4 hPa NNW 7.2 km/h 12.2 km/h 62% 0.0 mm 70 W/m2
17:47 17.3 °C 9.9 °C 1010.7 hPa NNW 7.2 km/h 12.2 km/h 62% 0.0 mm 75 W/m2
17:52 17.2 °C 10.1 °C 1010.4 hPa NNW 5.0 km/h 12.2 km/h 63% 0.0 mm 74 W/m2
17:57 17.2 °C 10.1 °C 1010.4 hPa NNW 7.2 km/h 15.8 km/h 63% 0.0 mm 71 W/m2
18:02 17.0 °C 9.9 °C 1010.4 hPa North 5.0 km/h 15.8 km/h 63% 0.0 mm 67 W/m2
18:07 17.0 °C 10.2 °C 1010.4 hPa North 8.7 km/h 14.8 km/h 64% 0.0 mm 66 W/m2
18:12 17.0 °C 10.2 °C 1010.4 hPa North 6.1 km/h 14.8 km/h 64% 0.0 mm 67 W/m2
18:16 17.0 °C 10.2 °C 1010.4 hPa North 5.0 km/h 14.8 km/h 64% 0.0 mm 67 W/m2
18:21 17.2 °C 10.6 °C 1010.4 hPa North 1.1 km/h 14.8 km/h 65% 0.0 mm 61 W/m2
18:26 17.2 °C 10.6 °C 1010.4 hPa NNW 5.0 km/h 9.7 km/h 65% 0.0 mm 48 W/m2
18:31 17.2 °C 10.6 °C 1010.0 hPa North 5.0 km/h 9.7 km/h 65% 0.0 mm 29 W/m2
18:36 17.0 °C 10.4 °C 1010.0 hPa NNW 7.2 km/h 11.1 km/h 65% 0.0 mm 21 W/m2
18:41 16.9 °C 10.5 °C 1010.0 hPa NNW 5.0 km/h 13.4 km/h 66% 0.0 mm 22 W/m2
18:46 16.9 °C 10.5 °C 1010.0 hPa NNW 6.1 km/h 13.4 km/h 66% 0.0 mm 24 W/m2
18:51 16.9 °C 10.5 °C 1010.0 hPa NNW 3.5 km/h 12.2 km/h 66% 0.0 mm 30 W/m2
18:56 16.9 °C 10.5 °C 1010.0 hPa NNW 6.1 km/h 12.2 km/h 66% 0.0 mm 32 W/m2
19:02 16.9 °C 10.5 °C 1010.4 hPa North 3.5 km/h 12.2 km/h 66% 0.0 mm 28 W/m2
19:07 16.9 °C 10.5 °C 1010.4 hPa NNW 6.1 km/h 12.2 km/h 66% 0.0 mm 15 W/m2
19:12 16.7 °C 10.6 °C 1010.4 hPa NNW 2.6 km/h 9.7 km/h 67% 0.0 mm 7 W/m2
19:17 16.7 °C 10.8 °C 1010.4 hPa NNW 3.5 km/h 9.7 km/h 68% 0.0 mm 3 W/m2
19:22 16.5 °C 10.8 °C 1010.7 hPa NW 5.0 km/h 8.7 km/h 69% 0.0 mm 1 W/m2
19:27 16.4 °C 10.7 °C 1010.4 hPa NNW 3.5 km/h 8.7 km/h 69% 0.0 mm 0 W/m2
19:32 16.2 °C 10.7 °C 1010.4 hPa NNW 5.0 km/h 12.2 km/h 70% 0.0 mm 0 W/m2
19:37 16.2 °C 10.7 °C 1010.7 hPa North 7.2 km/h 12.2 km/h 70% 0.0 mm 0 W/m2
19:42 16.2 °C 10.7 °C 1010.4 hPa NNW 6.1 km/h 13.4 km/h 70% 0.0 mm 0 W/m2
19:47 16.3 °C 10.6 °C 1010.4 hPa North 6.1 km/h 17.2 km/h 69% 0.0 mm 0 W/m2
19:52 16.3 °C 10.6 °C 1010.4 hPa North 8.7 km/h 19.5 km/h 69% 0.0 mm 0 W/m2
19:57 16.3 °C 10.6 °C 1010.0 hPa NNW 5.0 km/h 19.5 km/h 69% 0.0 mm 0 W/m2
20:02 16.3 °C 10.6 °C 1010.4 hPa North 7.2 km/h 19.5 km/h 69% 0.0 mm 0 W/m2
20:07 16.2 °C 10.5 °C 1010.4 hPa North 5.0 km/h 17.2 km/h 69% 0.0 mm 0 W/m2
20:12 16.2 °C 10.7 °C 1010.4 hPa NNW 7.2 km/h 14.8 km/h 70% 0.0 mm 0 W/m2
20:17 16.1 °C 10.6 °C 1010.4 hPa North 3.5 km/h 14.8 km/h 70% 0.0 mm 0 W/m2
20:22 16.1 °C 10.6 °C 1010.4 hPa North 5.0 km/h 15.8 km/h 70% 0.0 mm 0 W/m2
20:28 16.0 °C 10.6 °C 1010.4 hPa NNW 6.1 km/h 17.2 km/h 70% 0.0 mm 0 W/m2
20:32 16.1 °C 10.6 °C 1010.4 hPa NNW 11.1 km/h 17.2 km/h 70% 0.0 mm 0 W/m2
20:37 16.1 °C 10.6 °C 1010.7 hPa NNW 8.7 km/h 19.5 km/h 70% 0.0 mm 0 W/m2
20:42 16.1 °C 10.6 °C 1010.4 hPa NNW 18.3 km/h 28.0 km/h 70% 0.0 mm 0 W/m2
20:47 16.3 °C 10.6 °C 1010.7 hPa NNW 5.0 km/h 28.0 km/h 69% 0.0 mm 0 W/m2
20:52 16.2 °C 10.3 °C 1010.7 hPa NNW 8.7 km/h 28.0 km/h 68% 0.0 mm 0 W/m2
20:57 16.2 °C 10.5 °C 1010.7 hPa NNW 5.0 km/h 18.3 km/h 69% 0.0 mm 0 W/m2
21:02 16.1 °C 10.4 °C 1010.7 hPa Calm   13.4 km/h 69% 0.0 mm 0 W/m2
21:07 16.2 °C 10.5 °C 1010.7 hPa NNW 9.7 km/h 19.5 km/h 69% 0.0 mm 0 W/m2
21:12 16.2 °C 10.5 °C 1010.7 hPa NNW 7.2 km/h 19.5 km/h 69% 0.0 mm 0 W/m2
21:17 16.1 °C 10.4 °C 1010.4 hPa NNW 8.7 km/h 18.3 km/h 69% 0.0 mm 0 W/m2
21:22 16.1 °C 10.4 °C 1010.4 hPa NNW 9.7 km/h 15.8 km/h 69% 0.0 mm 0 W/m2
21:27 16.1 °C 10.4 °C 1010.4 hPa NNW 13.4 km/h 18.3 km/h 69% 0.0 mm 0 W/m2
21:32 16.1 °C 10.4 °C 1010.4 hPa NNW 9.7 km/h 18.3 km/h 69% 0.0 mm 0 W/m2
21:37 16.1 °C 10.4 °C 1010.0 hPa NNW 9.7 km/h 19.5 km/h 69% 0.0 mm 0 W/m2
21:42 16.0 °C 10.6 °C 1009.7 hPa NW 17.2 km/h 23.3 km/h 70% 0.0 mm 0 W/m2
21:47 16.0 °C 10.6 °C 1009.7 hPa NNW 14.8 km/h 23.3 km/h 70% 0.0 mm 0 W/m2
21:52 16.1 °C 10.4 °C 1009.7 hPa NNW 15.8 km/h 29.4 km/h 69% 0.0 mm 0 W/m2
21:57 16.1 °C 10.4 °C 1009.4 hPa NNW 17.2 km/h 31.7 km/h 69% 0.0 mm 0 W/m2
22:02 16.1 °C 10.4 °C 1009.4 hPa NNW 14.8 km/h 31.7 km/h 69% 0.0 mm 0 W/m2
22:07 16.1 °C 10.6 °C 1009.4 hPa NNW 13.4 km/h 29.4 km/h 70% 0.0 mm 0 W/m2
22:12 16.1 °C 10.6 °C 1009.7 hPa NW 11.1 km/h 24.5 km/h 70% 0.0 mm 0 W/m2
22:17 16.0 °C 10.6 °C 1009.4 hPa NNW 8.7 km/h 24.5 km/h 70% 0.0 mm 0 W/m2
22:22 15.9 °C 10.9 °C 1009.4 hPa NNW 11.1 km/h 18.3 km/h 72% 0.0 mm 0 W/m2
22:27 15.6 °C 10.8 °C 1009.4 hPa North 11.1 km/h 19.5 km/h 73% 0.0 mm 0 W/m2
22:32 15.4 °C 10.8 °C 1009.0 hPa North 12.2 km/h 19.5 km/h 74% 0.0 mm 0 W/m2
22:37 15.4 °C 10.8 °C 1008.7 hPa NW 12.2 km/h 21.9 km/h 74% 0.0 mm 0 W/m2
22:42 15.6 °C 10.8 °C 1009.0 hPa NNW 5.0 km/h 21.9 km/h 73% 0.0 mm 0 W/m2
22:47 15.6 °C 10.8 °C 1009.0 hPa North 5.0 km/h 21.9 km/h 73% 0.0 mm 0 W/m2
22:52 15.6 °C 10.8 °C 1009.0 hPa NNE 8.7 km/h 13.4 km/h 73% 0.0 mm 0 W/m2
22:57 15.6 °C 10.8 °C 1009.0 hPa North 8.7 km/h 20.9 km/h 73% 0.0 mm 0 W/m2
23:02 15.5 °C 10.9 °C 1008.7 hPa NNW 8.7 km/h 20.9 km/h 74% 0.0 mm 0 W/m2
23:07 15.3 °C 10.7 °C 1009.0 hPa North 5.0 km/h 18.3 km/h 74% 0.0 mm 0 W/m2
23:12 15.4 °C 11.0 °C 1009.0 hPa NNE 2.6 km/h 12.2 km/h 75% 0.0 mm 0 W/m2
23:17 15.4 °C 11.0 °C 1009.4 hPa North 9.7 km/h 14.8 km/h 75% 0.0 mm 0 W/m2
23:22 15.6 °C 11.0 °C 1009.4 hPa North 11.1 km/h 15.8 km/h 74% 0.0 mm 0 W/m2
23:27 16.3 °C 11.3 °C 1009.4 hPa NNW 5.0 km/h 20.9 km/h 72% 0.0 mm 0 W/m2
23:32 16.2 °C 11.2 °C 1009.4 hPa NNW 5.0 km/h 20.9 km/h 72% 0.0 mm 0 W/m2
23:37 16.2 °C 11.2 °C 1009.4 hPa NNW 6.1 km/h 12.2 km/h 72% 0.0 mm 0 W/m2
23:42 16.4 °C 11.1 °C 1009.0 hPa North 6.1 km/h 18.3 km/h 71% 0.0 mm 0 W/m2
23:47 16.2 °C 11.2 °C 1009.4 hPa NNW 5.0 km/h 18.3 km/h 72% 0.0 mm 0 W/m2
23:52 16.2 °C 11.2 °C 1008.7 hPa NNW 12.2 km/h 18.3 km/h 72% 0.0 mm 0 W/m2
23:57 16.4 °C 11.1 °C 1009.0 hPa NNW 11.1 km/h 18.3 km/h 71% 0.0 mm 0 W/m2
Northern Hawkes Bay. New Zealand Historic Data
Compliments of Weather Underground - 2 mb